createdAt,value
2018-09-28T00:00:22.699Z,11.50
2018-09-28T00:02:50.127Z,11.60
2018-09-28T00:05:17.539Z,11.50
2018-09-28T00:07:44.943Z,11.50
2018-09-28T00:10:12.438Z,11.50
2018-09-28T00:12:39.875Z,11.40
2018-09-28T00:15:07.304Z,11.50
2018-09-28T00:17:34.719Z,11.50
2018-09-28T00:20:02.162Z,11.50
2018-09-28T00:22:29.556Z,11.40
2018-09-28T00:24:57.002Z,11.40
2018-09-28T00:27:24.443Z,11.40
2018-09-28T00:29:51.975Z,11.40
2018-09-28T00:32:19.379Z,11.30
2018-09-28T00:34:46.803Z,11.30
2018-09-28T00:37:14.207Z,11.30
2018-09-28T00:39:41.658Z,11.20
2018-09-28T00:42:09.064Z,11.20
2018-09-28T00:44:36.517Z,11.20
2018-09-28T00:47:03.919Z,11.20
2018-09-28T00:49:31.351Z,11.20
2018-09-28T00:51:58.763Z,11.10
2018-09-28T00:54:26.179Z,11.20
2018-09-28T00:56:53.598Z,11.00
2018-09-28T00:59:21.003Z,11.10
2018-09-28T01:01:48.411Z,11.10
2018-09-28T01:04:15.868Z,11.10
2018-09-28T01:06:43.311Z,11.10
2018-09-28T01:09:12.238Z,11.10
2018-09-28T01:11:39.660Z,11.00
2018-09-28T01:14:07.102Z,10.90
2018-09-28T01:16:34.510Z,11.00
2018-09-28T01:19:01.929Z,11.00
2018-09-28T01:21:29.355Z,11.00
2018-09-28T01:23:56.761Z,10.90
2018-09-28T01:26:24.187Z,10.90
2018-09-28T01:28:51.611Z,10.80
2018-09-28T01:31:19.146Z,10.80
2018-09-28T01:33:46.605Z,10.80
2018-09-28T01:36:14.116Z,10.70
2018-09-28T01:38:41.507Z,10.80
2018-09-28T01:41:08.926Z,10.70
2018-09-28T01:43:36.358Z,10.70
2018-09-28T01:46:03.947Z,10.70
2018-09-28T01:48:31.467Z,10.70
2018-09-28T01:50:58.878Z,10.70
2018-09-28T01:53:26.287Z,10.70
2018-09-28T01:55:53.787Z,10.70
2018-09-28T01:58:21.199Z,10.80
2018-09-28T02:00:48.823Z,10.70
2018-09-28T02:03:16.255Z,10.60
2018-09-28T02:05:43.712Z,10.70
2018-09-28T02:08:11.172Z,10.70
2018-09-28T02:10:38.567Z,10.60
2018-09-28T02:13:06.008Z,10.60
2018-09-28T02:15:33.458Z,10.60
2018-09-28T02:18:00.900Z,10.50
2018-09-28T02:20:28.356Z,10.50
2018-09-28T02:22:55.779Z,10.50
2018-09-28T02:25:23.223Z,10.60
2018-09-28T02:27:51.466Z,10.60
2018-09-28T02:30:19.410Z,10.50
2018-09-28T02:32:47.295Z,10.40
2018-09-28T02:35:15.183Z,10.30
2018-09-28T02:37:43.114Z,10.30
2018-09-28T02:40:11.005Z,10.30
2018-09-28T02:42:38.443Z,10.30
2018-09-28T02:45:05.869Z,10.30
2018-09-28T02:47:33.353Z,10.40
2018-09-28T02:50:00.795Z,10.30
2018-09-28T02:52:28.195Z,10.30
2018-09-28T02:54:55.629Z,10.40
2018-09-28T02:57:23.043Z,10.30
2018-09-28T02:59:50.486Z,10.30
2018-09-28T03:02:17.896Z,10.30
2018-09-28T03:04:45.331Z,10.30
2018-09-28T03:07:12.754Z,10.30
2018-09-28T03:09:40.166Z,10.20
2018-09-28T03:12:07.572Z,10.10
2018-09-28T03:14:35.008Z,10.10
2018-09-28T03:17:02.436Z,10.10
2018-09-28T03:19:29.870Z,10.10
2018-09-28T03:21:57.290Z,10.10
2018-09-28T03:24:24.749Z,10.10
2018-09-28T03:26:52.168Z,9.90
2018-09-28T03:29:19.591Z,10.00
2018-09-28T03:31:47.023Z,10.00
2018-09-28T03:34:14.423Z,10.00
2018-09-28T03:36:41.839Z,10.00
2018-09-28T03:39:09.235Z,10.10
2018-09-28T03:41:36.721Z,10.10
2018-09-28T03:44:04.415Z,10.20
2018-09-28T03:46:31.866Z,10.00
2018-09-28T03:48:59.364Z,10.00
2018-09-28T03:51:26.875Z,9.90
2018-09-28T03:53:54.292Z,9.90
2018-09-28T03:56:21.730Z,9.80
2018-09-28T03:58:49.131Z,9.90
2018-09-28T04:01:16.559Z,9.80
2018-09-28T04:03:44.148Z,9.90
2018-09-28T04:06:11.564Z,9.80
2018-09-28T04:08:38.991Z,9.80
2018-09-28T04:11:06.743Z,9.80
2018-09-28T04:13:34.175Z,9.80
2018-09-28T04:16:01.647Z,9.70
2018-09-28T04:18:29.284Z,9.70
2018-09-28T04:20:56.680Z,9.80
2018-09-28T04:23:24.111Z,9.80
2018-09-28T04:25:51.563Z,9.70
2018-09-28T04:28:19.007Z,9.70
2018-09-28T04:30:46.423Z,9.80
2018-09-28T04:33:13.835Z,9.70
2018-09-28T04:35:41.263Z,9.70
2018-09-28T04:38:08.682Z,9.70
2018-09-28T04:40:36.125Z,9.70
2018-09-28T04:43:03.875Z,9.70
2018-09-28T04:45:31.301Z,9.70
2018-09-28T04:47:58.674Z,9.70
2018-09-28T04:50:26.135Z,9.70
2018-09-28T04:52:53.708Z,9.60
2018-09-28T04:55:21.138Z,9.70
2018-09-28T04:57:49.198Z,9.60
2018-09-28T05:00:16.611Z,9.60
2018-09-28T05:02:44.108Z,9.60
2018-09-28T05:05:11.539Z,9.60
2018-09-28T05:07:38.947Z,9.60
2018-09-28T05:10:06.426Z,9.60
2018-09-28T05:12:33.947Z,9.60
2018-09-28T05:15:01.436Z,9.60
2018-09-28T05:17:28.881Z,9.60
2018-09-28T05:19:56.400Z,9.60
2018-09-28T05:22:23.820Z,9.60
2018-09-28T05:24:51.211Z,9.60
2018-09-28T05:27:18.688Z,9.60
2018-09-28T05:29:46.200Z,9.50
2018-09-28T05:32:13.768Z,9.40
2018-09-28T05:34:41.092Z,9.50
2018-09-28T05:37:08.539Z,9.30
2018-09-28T05:39:36.080Z,9.40
2018-09-28T05:42:03.465Z,9.30
2018-09-28T05:44:30.897Z,9.40
2018-09-28T05:46:58.347Z,9.30
2018-09-28T05:49:25.785Z,9.30
2018-09-28T05:51:53.199Z,9.30
2018-09-28T05:54:20.614Z,9.20
2018-09-28T05:56:48.106Z,9.30
2018-09-28T05:59:21.160Z,9.20
2018-09-28T06:01:54.371Z,9.20
2018-09-28T06:04:27.587Z,9.30
2018-09-28T06:06:55.139Z,9.30
2018-09-28T06:09:22.623Z,9.30
2018-09-28T06:11:50.067Z,9.40
2018-09-28T06:14:17.501Z,9.40
2018-09-28T06:16:44.936Z,9.40
2018-09-28T06:19:12.348Z,9.60
2018-09-28T06:21:39.922Z,9.60
2018-09-28T06:24:07.388Z,9.70
2018-09-28T06:26:34.779Z,9.70
2018-09-28T06:29:02.611Z,9.80
2018-09-28T06:31:30.083Z,9.80
2018-09-28T06:33:57.499Z,9.70
2018-09-28T06:36:25.527Z,9.80
2018-09-28T06:38:53.047Z,9.90
2018-09-28T06:41:21.341Z,10.00
2018-09-28T06:43:48.831Z,9.90
2018-09-28T06:46:16.304Z,10.00
2018-09-28T06:48:43.723Z,10.10
2018-09-28T06:51:11.215Z,10.10
2018-09-28T06:53:38.908Z,10.10
2018-09-28T06:56:06.503Z,10.20
2018-09-28T06:58:34.111Z,10.20
2018-09-28T07:01:01.803Z,10.40
2018-09-28T07:03:29.449Z,10.50
2018-09-28T07:05:56.986Z,10.50
2018-09-28T07:08:24.491Z,10.60
2018-09-28T07:10:52.124Z,10.50
2018-09-28T07:13:19.564Z,10.60
2018-09-28T07:15:46.978Z,10.60
2018-09-28T07:18:14.449Z,10.80
2018-09-28T07:20:41.862Z,10.80
2018-09-28T07:23:09.308Z,10.90
2018-09-28T07:25:36.735Z,10.90
2018-09-28T07:28:04.159Z,11.00
2018-09-28T07:30:31.577Z,11.00
2018-09-28T07:32:59.007Z,11.10
2018-09-28T07:35:26.495Z,11.20
2018-09-28T07:37:53.912Z,11.30
2018-09-28T07:40:21.339Z,11.40
2018-09-28T07:42:48.859Z,11.50
2018-09-28T07:45:16.267Z,11.60
2018-09-28T07:47:43.754Z,11.70
2018-09-28T07:50:11.176Z,11.80
2018-09-28T07:52:38.627Z,11.90
2018-09-28T07:55:06.130Z,12.00
2018-09-28T07:57:33.874Z,12.10
2018-09-28T08:00:01.699Z,12.30
2018-09-28T08:02:29.094Z,12.40
2018-09-28T08:04:56.780Z,12.60
2018-09-28T08:07:24.187Z,12.70
2018-09-28T08:09:51.608Z,12.80
2018-09-28T08:12:19.019Z,13.00
2018-09-28T08:14:46.439Z,13.10
2018-09-28T08:17:13.847Z,13.30
2018-09-28T08:19:41.311Z,13.50
2018-09-28T08:22:08.836Z,13.70
2018-09-28T08:24:36.358Z,13.90
2018-09-28T08:27:03.763Z,14.10
2018-09-28T08:29:31.191Z,14.20
2018-09-28T08:31:58.639Z,14.40
2018-09-28T08:34:26.150Z,14.70
2018-09-28T08:36:53.640Z,14.90
2018-09-28T08:39:21.044Z,15.20
2018-09-28T08:41:48.599Z,15.40
2018-09-28T08:44:15.970Z,15.60
2018-09-28T08:46:43.395Z,15.60
2018-09-28T08:49:10.868Z,15.80
2018-09-28T08:51:38.275Z,16.00
2018-09-28T08:54:05.734Z,16.10
2018-09-28T08:56:33.311Z,16.30
2018-09-28T08:59:00.987Z,16.40
2018-09-28T09:01:28.472Z,16.50
2018-09-28T09:03:55.916Z,16.60
2018-09-28T09:06:23.378Z,16.80
2018-09-28T09:08:50.823Z,17.00
2018-09-28T09:11:18.285Z,17.10
2018-09-28T09:13:45.697Z,17.30
2018-09-28T09:16:13.127Z,17.50
2018-09-28T09:18:40.579Z,17.60
2018-09-28T09:21:08.015Z,17.90
2018-09-28T09:23:35.519Z,18.10
2018-09-28T09:26:02.979Z,18.10
2018-09-28T09:28:30.407Z,18.20
2018-09-28T09:30:57.848Z,18.60
2018-09-28T09:33:25.335Z,18.80
2018-09-28T09:35:53.178Z,19.10
2018-09-28T09:38:20.632Z,19.40
2018-09-28T09:40:48.154Z,19.40
2018-09-28T09:43:15.619Z,19.50
2018-09-28T09:45:43.076Z,19.50
2018-09-28T09:48:10.562Z,19.60
2018-09-28T09:50:38.064Z,19.90
2018-09-28T09:53:05.658Z,20.20
2018-09-28T09:55:33.120Z,20.40
2018-09-28T09:58:00.570Z,20.60
2018-09-28T10:00:33.944Z,20.50
2018-09-28T10:03:05.931Z,20.80
2018-09-28T10:05:33.440Z,21.10
2018-09-28T10:08:00.903Z,21.30
2018-09-28T10:10:28.489Z,21.50
2018-09-28T10:12:56.010Z,21.80
2018-09-28T10:15:23.471Z,22.00
2018-09-28T10:17:51.003Z,22.40
2018-09-28T10:20:18.652Z,22.50
2018-09-28T10:22:46.089Z,22.30
2018-09-28T10:25:14.120Z,22.50
2018-09-28T10:27:41.620Z,22.90
2018-09-28T10:30:09.151Z,23.10
2018-09-28T10:32:36.590Z,23.40
2018-09-28T10:35:04.115Z,23.70
2018-09-28T10:37:31.655Z,23.80
2018-09-28T10:39:59.089Z,24.00
2018-09-28T10:42:26.556Z,24.30
2018-09-28T10:44:54.132Z,24.50
2018-09-28T10:47:21.543Z,24.70
2018-09-28T10:49:49.847Z,24.50
2018-09-28T10:52:17.498Z,24.80
2018-09-28T10:54:44.873Z,25.20
2018-09-28T10:57:12.402Z,25.40
2018-09-28T10:59:39.853Z,25.70
2018-09-28T11:02:07.363Z,26.10
2018-09-28T11:04:34.951Z,26.90
2018-09-28T11:07:02.420Z,27.90
2018-09-28T11:09:29.990Z,28.80
2018-09-28T11:11:57.438Z,30.10
2018-09-28T11:14:24.926Z,31.30
2018-09-28T11:16:52.460Z,32.50
2018-09-28T11:19:19.945Z,33.10
2018-09-28T11:21:47.549Z,31.40
2018-09-28T11:24:15.027Z,32.10
2018-09-28T11:26:42.539Z,32.80
2018-09-28T11:29:09.988Z,33.50
2018-09-28T11:31:37.497Z,33.60
2018-09-28T11:34:05.056Z,33.20
2018-09-28T11:36:32.616Z,32.50
2018-09-28T11:39:00.099Z,30.80
2018-09-28T11:41:27.576Z,30.60
2018-09-28T11:43:55.067Z,30.20
2018-09-28T11:46:22.912Z,29.40
2018-09-28T11:48:50.449Z,29.30
2018-09-28T11:51:18.897Z,29.40
2018-09-28T11:53:46.379Z,29.20
2018-09-28T11:56:14.260Z,29.40
2018-09-28T11:58:45.784Z,29.70
2018-09-28T12:01:13.279Z,29.80
2018-09-28T12:03:40.806Z,29.70
2018-09-28T12:06:08.375Z,29.60
2018-09-28T12:08:36.019Z,28.70
2018-09-28T12:11:05.928Z,28.50
2018-09-28T12:13:35.602Z,28.00
2018-09-28T12:16:04.671Z,27.80
2018-09-28T12:18:32.184Z,27.50
2018-09-28T12:20:59.742Z,27.50
2018-09-28T12:23:27.400Z,26.40
2018-09-28T12:25:55.371Z,26.20
2018-09-28T12:28:22.978Z,25.70
2018-09-28T12:30:50.569Z,25.50
2018-09-28T12:33:18.003Z,26.30
2018-09-28T12:35:45.525Z,26.50
2018-09-28T12:38:13.022Z,26.10
2018-09-28T12:40:40.493Z,25.30
2018-09-28T12:43:08.987Z,24.30
2018-09-28T12:45:37.130Z,23.60
2018-09-28T12:48:04.759Z,23.10
2018-09-28T12:50:32.300Z,22.80
2018-09-28T12:52:59.731Z,22.80
2018-09-28T12:55:27.547Z,22.50
2018-09-28T12:57:55.016Z,22.30
2018-09-28T13:00:23.523Z,22.20
2018-09-28T13:02:50.898Z,22.20
2018-09-28T13:05:18.319Z,21.80
2018-09-28T13:07:45.780Z,21.30
2018-09-28T13:10:13.253Z,21.20
2018-09-28T13:12:41.946Z,20.60
2018-09-28T13:15:09.948Z,20.70
2018-09-28T13:17:37.298Z,20.70
2018-09-28T13:20:04.820Z,20.60
2018-09-28T13:22:32.243Z,20.60
2018-09-28T13:25:00.717Z,20.60
2018-09-28T13:27:28.172Z,20.50
2018-09-28T13:29:55.609Z,20.70
2018-09-28T13:32:23.093Z,20.50
2018-09-28T13:34:50.899Z,20.50
2018-09-28T13:37:18.468Z,20.40
2018-09-28T13:39:45.920Z,20.10
2018-09-28T13:42:13.500Z,19.80
2018-09-28T13:44:41.470Z,19.40
2018-09-28T13:47:09.127Z,19.30
2018-09-28T13:49:36.614Z,19.00
2018-09-28T13:52:04.215Z,18.80
2018-09-28T13:54:33.304Z,18.70
2018-09-28T13:57:02.108Z,18.60
2018-09-28T13:59:29.663Z,18.30
2018-09-28T14:01:57.216Z,18.20
2018-09-28T14:04:24.837Z,18.10
2018-09-28T14:06:52.488Z,18.20
2018-09-28T14:09:19.911Z,18.10
2018-09-28T14:11:47.438Z,18.00
2018-09-28T14:14:14.973Z,18.00
2018-09-28T14:16:42.389Z,17.90
2018-09-28T14:19:09.884Z,17.70
2018-09-28T14:21:37.343Z,17.40
2018-09-28T14:24:04.808Z,17.20
2018-09-28T14:26:32.349Z,16.80
2018-09-28T14:28:59.868Z,16.90
2018-09-28T14:31:27.268Z,16.70
2018-09-28T14:33:54.768Z,16.60
2018-09-28T14:36:23.294Z,16.50
2018-09-28T14:38:50.693Z,16.20
2018-09-28T14:41:18.171Z,16.40
2018-09-28T14:43:45.627Z,16.20
2018-09-28T14:46:13.352Z,16.30
2018-09-28T14:48:40.939Z,16.10
2018-09-28T14:51:08.287Z,16.00
2018-09-28T14:53:35.806Z,15.90
2018-09-28T14:56:03.318Z,15.80
2018-09-28T14:58:30.863Z,15.80
2018-09-28T15:00:58.417Z,15.70
2018-09-28T15:03:25.789Z,15.70
2018-09-28T15:05:54.104Z,15.50
2018-09-28T15:08:21.585Z,15.50
2018-09-28T15:10:49.138Z,15.60
2018-09-28T15:13:17.420Z,15.50
2018-09-28T15:15:45.284Z,15.40
2018-09-28T15:18:12.766Z,15.50
2018-09-28T15:20:40.217Z,15.40
2018-09-28T15:23:07.673Z,15.60
2018-09-28T15:25:35.160Z,15.50
2018-09-28T15:28:02.612Z,15.50
2018-09-28T15:30:30.084Z,15.50
2018-09-28T15:32:57.575Z,15.30
2018-09-28T15:35:26.161Z,15.30
2018-09-28T15:37:53.628Z,15.40
2018-09-28T15:40:21.161Z,15.30
2018-09-28T15:42:48.921Z,15.30
2018-09-28T15:45:16.391Z,15.10
2018-09-28T15:47:44.444Z,15.20
2018-09-28T15:50:11.891Z,15.10
2018-09-28T15:52:39.436Z,15.10
2018-09-28T15:55:07.028Z,15.10
2018-09-28T15:57:35.405Z,15.00
2018-09-28T16:00:03.089Z,15.00
2018-09-28T16:02:30.685Z,14.90
2018-09-28T16:04:58.144Z,15.00
2018-09-28T16:07:25.690Z,15.10
2018-09-28T16:09:53.128Z,14.90
2018-09-28T16:12:20.543Z,15.00
2018-09-28T16:14:47.985Z,14.90
2018-09-28T16:17:15.499Z,14.90
2018-09-28T16:19:42.955Z,14.80
2018-09-28T16:22:10.375Z,14.90
2018-09-28T16:24:37.930Z,14.90
2018-09-28T16:27:05.498Z,14.90
2018-09-28T16:29:33.006Z,14.90
2018-09-28T16:32:00.532Z,14.70
2018-09-28T16:34:28.111Z,14.90
2018-09-28T16:36:55.723Z,14.70
2018-09-28T16:39:23.188Z,14.80
2018-09-28T16:41:50.648Z,14.80
2018-09-28T16:44:18.141Z,14.70
2018-09-28T16:46:45.593Z,14.50
2018-09-28T16:49:13.047Z,14.70
2018-09-28T16:51:40.526Z,14.70
2018-09-28T16:54:07.989Z,14.70
2018-09-28T16:56:35.465Z,14.60
2018-09-28T16:59:02.967Z,14.60
2018-09-28T17:01:30.475Z,14.60
2018-09-28T17:03:57.899Z,14.70
2018-09-28T17:06:25.351Z,14.70
2018-09-28T17:08:52.808Z,14.70
2018-09-28T17:11:20.273Z,14.70
2018-09-28T17:13:47.724Z,14.70
2018-09-28T17:16:15.244Z,14.60
2018-09-28T17:18:42.707Z,14.50
2018-09-28T17:21:10.176Z,14.50
2018-09-28T17:23:37.656Z,14.50
2018-09-28T17:26:05.225Z,14.60
2018-09-28T17:28:32.714Z,14.50
2018-09-28T17:31:00.187Z,14.50
2018-09-28T17:33:27.676Z,14.50
2018-09-28T17:35:55.298Z,14.50
2018-09-28T17:38:22.769Z,14.50
2018-09-28T17:40:50.248Z,14.50
2018-09-28T17:43:17.727Z,14.40
2018-09-28T17:45:45.312Z,14.50
2018-09-28T17:48:12.768Z,14.50
2018-09-28T17:50:40.208Z,14.50
2018-09-28T17:53:07.680Z,14.50
2018-09-28T17:55:35.148Z,14.50
2018-09-28T17:58:03.043Z,14.40
2018-09-28T18:00:30.526Z,14.40
2018-09-28T18:02:57.986Z,14.40
2018-09-28T18:05:25.435Z,14.40
2018-09-28T18:07:52.891Z,14.30
2018-09-28T18:10:20.528Z,14.40
2018-09-28T18:12:48.133Z,14.40
2018-09-28T18:15:15.595Z,14.40
2018-09-28T18:17:43.118Z,14.40
2018-09-28T18:20:10.706Z,14.50
2018-09-28T18:22:38.108Z,14.40
2018-09-28T18:25:05.655Z,14.40
2018-09-28T18:27:33.103Z,14.40
2018-09-28T18:30:00.540Z,14.40
2018-09-28T18:32:28.002Z,14.40
2018-09-28T18:34:56.474Z,14.40
2018-09-28T18:37:23.909Z,14.40
2018-09-28T18:39:51.360Z,14.40
2018-09-28T18:42:18.875Z,14.40
2018-09-28T18:44:46.296Z,14.30
2018-09-28T18:47:13.957Z,14.30
2018-09-28T18:49:41.469Z,14.30
2018-09-28T18:52:09.124Z,14.30
2018-09-28T18:54:36.559Z,14.20
2018-09-28T18:57:04.016Z,14.20
2018-09-28T18:59:31.609Z,14.20
2018-09-28T19:01:59.156Z,14.10
2018-09-28T19:04:26.836Z,14.00
2018-09-28T19:06:54.568Z,14.10
2018-09-28T19:09:22.183Z,14.10
2018-09-28T19:11:49.919Z,13.90
2018-09-28T19:14:17.642Z,14.00
2018-09-28T19:16:45.102Z,13.90
2018-09-28T19:19:12.639Z,13.90
2018-09-28T19:21:40.387Z,13.90
2018-09-28T19:24:07.994Z,13.90
2018-09-28T19:26:35.463Z,13.90
2018-09-28T19:29:02.956Z,13.90
2018-09-28T19:31:30.696Z,13.90
2018-09-28T19:33:58.345Z,13.80
2018-09-28T19:36:25.872Z,13.90
2018-09-28T19:38:53.523Z,13.80
2018-09-28T19:41:21.120Z,13.80
2018-09-28T19:43:48.807Z,13.80
2018-09-28T19:46:16.391Z,13.80
2018-09-28T19:48:43.973Z,13.70
2018-09-28T19:51:11.866Z,13.70
2018-09-28T19:53:39.303Z,13.60
2018-09-28T19:56:06.929Z,13.70
2018-09-28T19:58:34.424Z,13.60
2018-09-28T20:01:02.014Z,13.50
2018-09-28T20:03:29.561Z,13.60
2018-09-28T20:05:58.239Z,13.50
2018-09-28T20:08:25.834Z,13.50
2018-09-28T20:10:53.295Z,13.40
2018-09-28T20:13:20.731Z,13.40
2018-09-28T20:15:48.526Z,13.40
2018-09-28T20:18:16.285Z,13.40
2018-09-28T20:20:43.764Z,13.30
2018-09-28T20:23:11.244Z,13.20
2018-09-28T20:25:38.810Z,13.30
2018-09-28T20:28:06.287Z,13.20
2018-09-28T20:30:35.085Z,13.20
2018-09-28T20:33:02.838Z,13.20
2018-09-28T20:35:30.287Z,13.10
2018-09-28T20:37:57.731Z,13.10
2018-09-28T20:40:26.015Z,13.10
2018-09-28T20:42:54.075Z,12.90
2018-09-28T20:45:21.527Z,13.00
2018-09-28T20:47:48.999Z,13.00
2018-09-28T20:50:17.245Z,13.00
2018-09-28T20:52:44.937Z,13.00
2018-09-28T20:55:12.523Z,12.90
2018-09-28T20:57:39.963Z,12.90
2018-09-28T21:00:07.597Z,12.90
2018-09-28T21:02:35.489Z,12.70
2018-09-28T21:05:03.085Z,12.80
2018-09-28T21:07:30.687Z,12.70
2018-09-28T21:09:58.284Z,12.80
2018-09-28T21:12:25.992Z,12.80
2018-09-28T21:14:53.493Z,12.70
2018-09-28T21:17:21.051Z,12.60
2018-09-28T21:19:48.916Z,12.60
2018-09-28T21:22:16.837Z,12.50
2018-09-28T21:24:44.852Z,12.50
2018-09-28T21:27:12.215Z,12.50
2018-09-28T21:29:40.094Z,12.50
2018-09-28T21:32:07.794Z,12.30
2018-09-28T21:34:35.351Z,12.50
2018-09-28T21:37:02.960Z,12.30
2018-09-28T21:39:30.470Z,12.30
2018-09-28T21:41:58.394Z,12.30
2018-09-28T21:44:26.137Z,12.20
2018-09-28T21:46:54.207Z,12.30
2018-09-28T21:49:21.804Z,12.30
2018-09-28T21:51:49.260Z,12.10
2018-09-28T21:54:16.869Z,12.30
2018-09-28T21:56:44.574Z,12.10
2018-09-28T21:59:12.084Z,12.10
2018-09-28T22:01:39.584Z,12.20
2018-09-28T22:04:07.122Z,12.20
2018-09-28T22:06:34.685Z,12.10
2018-09-28T22:09:02.608Z,12.10
2018-09-28T22:11:30.354Z,12.00
2018-09-28T22:13:57.945Z,12.10
2018-09-28T22:16:25.630Z,11.90
2018-09-28T22:18:53.096Z,12.00
2018-09-28T22:21:21.048Z,12.00
2018-09-28T22:23:48.620Z,11.90
2018-09-28T22:26:16.083Z,11.90
2018-09-28T22:28:43.633Z,11.90
2018-09-28T22:31:11.507Z,11.90
2018-09-28T22:33:39.297Z,11.70
2018-09-28T22:36:07.165Z,11.70
2018-09-28T22:38:34.736Z,11.80
2018-09-28T22:41:02.234Z,11.70
2018-09-28T22:43:29.937Z,11.70
2018-09-28T22:45:57.439Z,11.50
2018-09-28T22:48:24.898Z,11.50
2018-09-28T22:50:52.356Z,11.60
2018-09-28T22:53:19.848Z,11.40
2018-09-28T22:55:47.287Z,11.50
2018-09-28T22:58:14.812Z,11.50
2018-09-28T23:00:42.263Z,11.60
2018-09-28T23:03:09.925Z,11.50
2018-09-28T23:05:37.445Z,11.60
2018-09-28T23:08:05.011Z,11.50
2018-09-28T23:10:32.457Z,11.60
2018-09-28T23:12:59.931Z,11.50
2018-09-28T23:15:27.459Z,11.60
2018-09-28T23:17:54.916Z,11.60
2018-09-28T23:20:22.388Z,11.50
2018-09-28T23:22:50.966Z,11.40
2018-09-28T23:25:18.497Z,11.50
2018-09-28T23:27:45.991Z,11.40
2018-09-28T23:30:13.459Z,11.40
2018-09-28T23:32:40.906Z,11.30
2018-09-28T23:35:08.367Z,11.10
2018-09-28T23:37:35.825Z,11.20
2018-09-28T23:40:03.451Z,11.30
2018-09-28T23:42:30.935Z,11.30
2018-09-28T23:44:58.506Z,11.30
2018-09-28T23:47:25.958Z,11.20
2018-09-28T23:49:53.417Z,11.10
2018-09-28T23:52:20.910Z,11.10
2018-09-28T23:54:48.340Z,11.00
2018-09-28T23:57:15.816Z,11.10
2018-09-28T23:59:43.303Z,11.10
